Time;durP1;ratioP1;P1;durP2;ratioP2;P2;SDS_P1;SDS_P2;PMS_P1;PMS_P2;Temp;Humidity;BMP_temperature;BMP_pressure;BME280_temperature;BME280_humidity;BME280_pressure;Samples;Min_cycle;Max_cycle;Signal;HPM_P1;HPM_P2
2021/09/09 00:01:56;;;;;;;;;21.75;21.00;;;;;29.06;52.96;100211.94;6190731;22;51418;-83
2021/09/09 00:04:21;;;;;;;;;16.50;16.50;;;;;29.14;53.27;100239.09;6216332;22;45240;-83
2021/09/09 00:06:47;;;;;;;;;20.75;20.75;;;;;29.11;53.27;100233.97;6215756;22;56097;-84
2021/09/09 00:09:12;;;;;;;;;22.00;18.75;;;;;29.16;53.29;100242.50;6216368;22;45742;-83
2021/09/09 00:11:37;;;;;;;;;21.25;20.25;;;;;29.13;53.33;100232.88;6217935;22;45151;-84
2021/09/09 00:14:03;;;;;;;;;22.00;21.25;;;;;29.07;52.97;100217.19;6190296;22;47633;-84
2021/09/09 00:16:28;;;;;;;;;26.25;23.00;;;;;29.11;53.53;100225.91;6217674;22;45208;-83
2021/09/09 00:18:54;;;;;;;;;28.00;23.00;;;;;29.06;53.04;100231.59;6217924;22;45610;-83
2021/09/09 00:21:19;;;;;;;;;23.75;22.25;;;;;29.02;53.80;100230.16;6217817;22;45304;-84
2021/09/09 00:23:45;;;;;;;;;20.25;20.25;;;;;28.97;53.57;100210.81;6217643;22;45371;-84
2021/09/09 00:26:10;;;;;;;;;25.75;25.50;;;;;28.99;53.10;100203.47;6216215;22;45391;-84
2021/09/09 00:28:35;;;;;;;;;25.25;23.75;;;;;28.98;53.42;100209.84;6190393;22;45894;-84
2021/09/09 00:31:01;;;;;;;;;27.75;22.25;;;;;28.96;53.75;100198.34;6216412;22;45265;-84
2021/09/09 00:33:26;;;;;;;;;22.00;21.50;;;;;28.97;53.70;100200.06;6216083;22;46205;-85
2021/09/09 00:35:52;;;;;;;;;21.00;20.00;;;;;28.95;53.88;100199.34;6215603;22;45363;-82
2021/09/09 00:38:17;;;;;;;;;22.75;19.75;;;;;28.90;53.54;100185.38;6217608;22;45753;-84
2021/09/09 00:40:42;;;;;;;;;19.50;19.00;;;;;28.95;53.51;100200.19;6216237;22;45239;-83
2021/09/09 00:43:08;;;;;;;;;17.00;15.50;;;;;28.89;53.72;100194.38;6215817;22;45367;-83
2021/09/09 00:45:33;;;;;;;;;19.75;17.50;;;;;28.86;53.12;100183.88;6190434;22;51307;-82
2021/09/09 00:47:59;;;;;;;;;20.75;18.50;;;;;28.86;53.40;100183.88;6190934;22;45274;-84
2021/09/09 00:50:24;;;;;;;;;19.25;16.75;;;;;28.85;53.38;100187.53;6190175;22;46589;-85
2021/09/09 00:52:50;;;;;;;;;18.50;16.50;;;;;28.85;53.85;100195.59;6190340;22;55182;-82
2021/09/09 00:55:16;;;;;;;;;18.00;16.00;;;;;28.80;53.65;100179.81;6165302;22;45195;-82
2021/09/09 00:57:42;;;;;;;;;22.25;20.25;;;;;28.76;53.29;100181.03;6190794;22;45244;-82
2021/09/09 01:00:08;;;;;;;;;18.50;18.25;;;;;28.74;53.41;100207.13;6215800;22;45493;-82
2021/09/09 01:02:33;;;;;;;;;17.00;16.50;;;;;28.66;53.56;100213.06;6190344;22;45743;-82
2021/09/09 01:04:59;;;;;;;;;17.75;17.00;;;;;28.64;53.64;100209.66;6214729;22;59579;-82
2021/09/09 01:07:24;;;;;;;;;18.25;16.50;;;;;28.62;53.89;100214.28;6189999;22;45555;-82
2021/09/09 01:09:50;;;;;;;;;18.50;18.50;;;;;28.55;53.71;100204.09;6190622;22;45424;-83
2021/09/09 01:12:16;;;;;;;;;20.00;17.50;;;;;28.58;53.75;100223.56;6216138;22;45453;-83
2021/09/09 01:14:41;;;;;;;;;20.25;20.00;;;;;28.56;54.11;100211.19;6164662;22;50064;-83
2021/09/09 01:17:07;;;;;;;;;16.75;16.75;;;;;28.53;54.04;100212.28;6191154;22;45330;-83
2021/09/09 01:19:32;;;;;;;;;19.75;16.25;;;;;28.55;53.92;100220.22;6190250;22;45252;-82
2021/09/09 01:21:58;;;;;;;;;14.75;14.75;;;;;28.51;53.68;100213.38;6216084;22;46355;-83
2021/09/09 01:24:23;;;;;;;;;17.25;16.25;;;;;28.49;54.40;100209.91;6190658;22;45191;-82
2021/09/09 01:26:53;;;;;;;;;18.75;18.50;;;;;28.56;53.70;100219.25;6190133;22;45723;-82
2021/09/09 01:29:19;;;;;;;;;16.00;15.25;;;;;28.54;54.00;100203.25;6214862;22;45662;-82
2021/09/09 01:31:44;;;;;;;;;16.25;16.25;;;;;28.57;54.37;100212.91;6190453;22;45430;-82
2021/09/09 01:34:10;;;;;;;;;17.75;17.00;;;;;28.58;53.93;100204.75;6190319;22;45372;-82
2021/09/09 01:36:36;;;;;;;;;19.25;15.00;;;;;28.62;53.59;100210.75;6190929;22;45406;-82
2021/09/09 01:39:01;;;;;;;;;17.50;16.50;;;;;28.60;54.01;100221.59;6215066;22;45372;-83
2021/09/09 01:41:27;;;;;;;;;16.00;16.00;;;;;28.55;53.54;100207.66;6189644;22;55849;-82
2021/09/09 01:43:52;;;;;;;;;19.50;18.50;;;;;28.60;53.58;100216.22;6164471;22;45333;-83
2021/09/09 01:46:17;;;;;;;;;16.75;16.50;;;;;28.60;53.97;100224.28;6190314;22;45895;-83
2021/09/09 01:48:43;;;;;;;;;20.50;19.50;;;;;28.57;52.95;100224.50;6164761;22;47924;-83
2021/09/09 01:51:08;;;;;;;;;18.25;18.25;;;;;28.53;53.76;100216.78;6189808;22;64635;-82
2021/09/09 01:53:33;;;;;;;;;19.25;17.75;;;;;28.54;53.64;100235.47;6190257;22;45209;-83
2021/09/09 01:55:59;;;;;;;;;16.50;15.50;;;;;28.53;54.04;100225.72;6165207;22;45120;-82
2021/09/09 01:58:24;;;;;;;;;20.50;19.00;;;;;28.54;54.07;100229.25;6164477;22;45507;-82
2021/09/09 02:00:50;;;;;;;;;18.25;18.25;;;;;28.57;53.32;100231.69;6216944;22;51814;-83
2021/09/09 02:03:15;;;;;;;;;21.50;19.00;;;;;28.56;53.64;100222.78;6190149;22;46683;-84
2021/09/09 02:05:41;;;;;;;;;17.75;17.75;;;;;28.55;53.13;100217.53;6190016;22;45203;-83
2021/09/09 02:08:06;;;;;;;;;20.50;19.00;;;;;28.55;53.47;100225.59;6164964;22;45691;-83
2021/09/09 02:10:32;;;;;;;;;21.25;20.00;;;;;28.53;53.26;100232.91;6217120;22;45236;-82
2021/09/09 02:12:58;;;;;;;;;21.00;19.25;;;;;28.50;53.89;100228.63;6216341;22;52352;-82
2021/09/09 02:15:24;;;;;;;;;18.50;18.50;;;;;28.47;53.47;100227.97;6190700;22;45230;-82
2021/09/09 02:17:49;;;;;;;;;22.25;20.00;;;;;28.41;53.94;100234.66;6190003;22;48629;-83
2021/09/09 02:20:15;;;;;;;;;20.25;17.75;;;;;28.43;53.74;100238.94;6215345;22;45330;-82
2021/09/09 02:22:40;;;;;;;;;20.75;20.25;;;;;28.44;53.89;100231.75;6189499;22;45706;-82
2021/09/09 02:25:06;;;;;;;;;22.00;20.25;;;;;28.47;53.45;100230.66;6190526;22;45383;-82
2021/09/09 02:27:31;;;;;;;;;24.50;21.00;;;;;28.49;54.05;100243.00;6189425;22;45394;-83
2021/09/09 02:29:57;;;;;;;;;21.25;19.50;;;;;28.50;53.54;100239.38;6189024;22;53838;-83
2021/09/09 02:32:22;;;;;;;;;23.75;20.50;;;;;28.47;54.12;100228.84;6189099;22;56202;-83
2021/09/09 02:34:47;;;;;;;;;22.00;21.00;;;;;28.41;53.58;100218.56;6215596;22;45262;-82
2021/09/09 02:37:13;;;;;;;;;20.25;20.25;;;;;28.43;54.10;100227.34;6214931;22;45209;-83
2021/09/09 02:39:42;;;;;;;;;21.50;19.75;;;;;28.44;54.25;100235.28;6214740;22;49733;-83
2021/09/09 02:42:08;;;;;;;;;23.50;23.50;;;;;28.46;53.77;100243.22;6214954;22;45178;-82
2021/09/09 02:44:33;;;;;;;;;21.75;21.00;;;;;28.49;54.30;100232.25;6190018;22;45123;-82
2021/09/09 02:46:58;;;;;;;;;21.50;19.50;;;;;28.54;53.80;100237.31;6190657;22;45518;-83
2021/09/09 02:49:24;;;;;;;;;22.50;20.25;;;;;28.55;53.88;100239.88;6190694;22;62068;-83
2021/09/09 02:51:49;;;;;;;;;24.50;22.00;;;;;28.60;53.87;100232.34;6190865;22;58590;-84
2021/09/09 02:54:14;;;;;;;;;20.25;20.25;;;;;28.62;53.90;100234.91;6191261;22;46828;-83
2021/09/09 02:56:40;;;;;;;;;22.25;21.00;;;;;28.62;53.79;100242.97;6190986;22;45360;-82
2021/09/09 02:59:05;;;;;;;;;23.75;21.25;;;;;28.61;53.42;100244.78;6190830;22;45922;-83
2021/09/09 03:01:31;;;;;;;;;24.25;20.75;;;;;28.56;53.81;100238.91;6215808;22;53318;-83
2021/09/09 03:03:56;;;;;;;;;22.25;22.00;;;;;28.51;53.29;100235.72;6190705;22;45334;-83
2021/09/09 03:06:22;;;;;;;;;21.50;21.50;;;;;28.49;53.79;100234.94;6165841;22;45403;-83
2021/09/09 03:08:47;;;;;;;;;19.00;19.00;;;;;28.43;53.73;100232.72;6215735;22;47228;-83
2021/09/09 03:11:12;;;;;;;;;20.00;18.75;;;;;28.41;53.58;100223.94;6216687;22;45294;-83
2021/09/09 03:13:38;;;;;;;;;22.50;20.75;;;;;28.34;53.39;100222.66;6215828;22;48424;-84
2021/09/09 03:16:03;;;;;;;;;30.75;22.75;;;;;28.31;54.01;100231.78;6216686;22;45281;-83
2021/09/09 03:18:29;;;;;;;;;19.75;19.75;;;;;28.27;53.72;100238.31;6216010;22;45921;-82
2021/09/09 03:20:55;;;;;;;;;19.50;17.50;;;;;28.29;54.00;100239.09;6216497;22;45183;-83
2021/09/09 03:23:20;;;;;;;;;18.50;17.75;;;;;28.28;54.29;100223.91;6191085;22;45186;-82
2021/09/09 03:25:45;;;;;;;;;24.25;23.00;;;;;28.31;54.20;100220.19;6165043;22;52366;-83
2021/09/09 03:28:11;;;;;;;;;22.25;19.75;;;;;28.34;54.14;100225.34;6190219;22;61368;-83
2021/09/09 03:30:36;;;;;;;;;21.00;20.75;;;;;28.33;54.21;100223.63;6190684;22;45623;-83
2021/09/09 03:33:02;;;;;;;;;18.25;17.50;;;;;28.34;53.82;100219.97;6190818;22;45245;-83
2021/09/09 03:35:27;;;;;;;;;23.75;19.75;;;;;28.36;53.70;100215.34;6216413;22;45214;-83
2021/09/09 03:37:53;;;;;;;;;21.25;21.25;;;;;28.39;54.03;100217.78;6215656;22;55176;-82
2021/09/09 03:40:19;;;;;;;;;25.00;23.00;;;;;28.37;53.80;100206.31;6190439;22;45246;-83
2021/09/09 03:42:44;;;;;;;;;22.50;21.25;;;;;28.38;53.58;100205.34;6165580;22;45319;-83
2021/09/09 03:45:10;;;;;;;;;21.25;21.25;;;;;28.37;53.46;100200.97;6165404;22;46066;-83
2021/09/09 03:47:35;;;;;;;;;20.25;20.00;;;;;28.39;54.00;100204.38;6190408;22;45878;-83
2021/09/09 03:50:01;;;;;;;;;20.25;19.50;;;;;28.39;54.10;100207.06;6215698;22;52963;-83
2021/09/09 03:52:26;;;;;;;;;24.25;19.25;;;;;28.37;53.32;100204.50;6216469;22;45669;-82
2021/09/09 03:54:52;;;;;;;;;23.00;21.25;;;;;28.34;53.64;100204.72;6216018;22;58628;-83
2021/09/09 03:57:17;;;;;;;;;21.50;19.75;;;;;28.32;53.70;100206.69;6217608;22;46420;-83
2021/09/09 03:59:43;;;;;;;;;28.00;25.25;;;;;28.34;53.48;100207.41;6189725;22;56511;-83
2021/09/09 04:02:08;;;;;;;;;22.25;22.25;;;;;28.30;53.48;100207.75;6216271;22;45311;-83
2021/09/09 04:04:33;;;;;;;;;21.50;20.50;;;;;28.24;54.42;100210.84;6217863;22;45291;-83
2021/09/09 04:06:59;;;;;;;;;21.00;20.00;;;;;28.22;54.08;100212.78;6190185;22;50495;-83
2021/09/09 04:09:24;;;;;;;;;22.50;22.50;;;;;28.22;53.49;100208.25;6190123;22;45214;-83
2021/09/09 04:11:50;;;;;;;;;26.50;23.50;;;;;28.15;54.16;100202.50;6190482;22;45195;-84
2021/09/09 04:14:15;;;;;;;;;21.50;21.50;;;;;28.17;54.20;100215.81;6190606;22;45581;-84
2021/09/09 04:16:41;;;;;;;;;22.25;21.75;;;;;28.16;53.63;100204.22;6215521;22;63679;-83
2021/09/09 04:19:06;;;;;;;;;25.00;22.25;;;;;28.16;53.99;100198.84;6190508;22;54459;-83
2021/09/09 04:21:32;;;;;;;;;28.25;23.75;;;;;28.14;53.79;100202.59;6191241;22;45238;-83
2021/09/09 04:23:57;;;;;;;;;25.75;25.25;;;;;28.11;53.53;100192.09;6191036;22;45126;-83
2021/09/09 04:26:23;;;;;;;;;27.50;24.75;;;;;28.09;54.26;100194.03;6216041;22;47011;-84
2021/09/09 04:28:48;;;;;;;;;23.25;23.00;;;;;28.02;53.95;100198.97;6217277;22;45102;-84
2021/09/09 04:31:13;;;;;;;;;23.00;22.25;;;;;28.03;54.13;100198.00;6190967;22;45224;-85
2021/09/09 04:33:39;;;;;;;;;26.00;23.75;;;;;28.05;53.58;100187.16;6215530;22;45275;-84
2021/09/09 04:36:07;;;;;;;;;20.75;20.75;;;;;28.06;54.47;100187.06;6217547;22;45343;-86
2021/09/09 04:38:32;;;;;;;;;26.00;24.25;;;;;28.04;54.01;100191.66;6217275;22;45412;-84
2021/09/09 04:40:58;;;;;;;;;23.50;22.75;;;;;28.05;53.64;100188.00;6216172;22;45287;-84
2021/09/09 04:43:23;;;;;;;;;23.00;21.00;;;;;28.06;54.19;100191.56;6189467;22;56091;-85
2021/09/09 04:45:49;;;;;;;;;23.75;22.75;;;;;28.02;54.03;100184.69;6215898;22;45926;-85
2021/09/09 04:48:14;;;;;;;;;30.25;28.00;;;;;28.01;53.85;100189.22;6190422;22;45119;-85
2021/09/09 04:50:39;;;;;;;;;31.00;29.25;;;;;27.94;53.98;100177.22;6218122;22;52356;-85
2021/09/09 04:53:05;;;;;;;;;33.25;28.75;;;;;27.85;53.93;100177.88;6191845;22;45414;-85
2021/09/09 04:55:34;;;;;;;;;26.50;24.00;;;;;27.82;54.11;100188.81;6190671;22;45230;-85
2021/09/09 04:57:59;;;;;;;;;23.75;23.75;;;;;27.80;53.69;100182.69;6168843;22;45321;-84
2021/09/09 05:00:25;;;;;;;;;25.75;23.75;;;;;27.82;54.00;100172.72;6190579;22;45728;-86
2021/09/09 05:02:50;;;;;;;;;24.75;24.25;;;;;27.86;53.81;100175.06;6215130;22;45865;-84
2021/09/09 05:05:16;;;;;;;;;26.50;26.00;;;;;27.89;53.35;100176.69;6215751;22;46522;-84
2021/09/09 05:07:41;;;;;;;;;25.25;24.00;;;;;27.87;54.01;100166.06;6215179;22;45417;-83
2021/09/09 05:10:07;;;;;;;;;28.25;28.00;;;;;27.83;53.92;100169.94;6214817;22;45319;-83
2021/09/09 05:12:33;;;;;;;;;24.75;24.00;;;;;27.92;53.86;100179.16;6191759;22;45663;-88
2021/09/09 05:15:01;;;;;;;;;24.00;22.75;;;;;27.91;53.89;100176.59;6189975;22;46790;-86
2021/09/09 05:17:26;;;;;;;;;26.75;25.00;;;;;27.94;54.31;100176.34;6222161;22;45136;-84
2021/09/09 05:19:52;;;;;;;;;26.50;24.75;;;;;27.97;54.34;100181.47;6165533;22;45141;-75
2021/09/09 05:22:17;;;;;;;;;32.75;31.00;;;;;27.93;53.89;100178.19;6241443;22;45217;-80
2021/09/09 05:24:43;;;;;;;;;29.00;28.25;;;;;27.98;54.12;100181.41;6189680;22;47067;-81
2021/09/09 05:27:08;;;;;;;;;31.75;29.25;;;;;27.99;54.20;100184.94;6215493;22;45562;-81
2021/09/09 05:29:34;;;;;;;;;26.75;25.00;;;;;28.04;53.53;100188.97;6214558;22;55037;-80
2021/09/09 05:31:59;;;;;;;;;30.00;26.50;;;;;28.00;54.25;100184.81;6217397;22;45280;-83
2021/09/09 05:34:25;;;;;;;;;27.50;26.25;;;;;28.05;53.87;100181.78;6189941;22;47285;-93
2021/09/09 05:36:51;;;;;;;;;28.25;26.50;;;;;28.17;53.92;100203.25;6216152;22;45354;-85
2021/09/09 05:39:16;;;;;;;;;25.50;24.75;;;;;28.22;53.74;100200.22;6189407;22;45486;-80
2021/09/09 05:41:41;;;;;;;;;28.25;28.25;;;;;28.26;54.59;100207.09;6165106;22;45585;-83
2021/09/09 05:44:07;;;;;;;;;30.25;28.00;;;;;28.23;54.24;100199.22;6214593;22;47999;-91
2021/09/09 05:46:32;;;;;;;;;27.75;26.00;;;;;28.32;53.19;100219.22;6191663;22;45352;-90
2021/09/09 05:48:58;;;;;;;;;31.00;25.25;;;;;28.33;52.74;100220.94;6190523;22;45350;-92
2021/09/09 05:51:23;;;;;;;;;22.50;22.50;;;;;28.28;53.30;100223.91;6165354;22;45748;-88
2021/09/09 05:53:49;;;;;;;;;26.50;22.75;;;;;28.31;52.95;100233.59;6167564;22;46974;-87
2021/09/09 05:56:14;;;;;;;;;26.50;23.50;;;;;28.30;52.94;100229.22;6190370;22;50383;-91
2021/09/09 05:58:40;;;;;;;;;26.25;24.75;;;;;28.25;53.40;100224.16;6165279;22;45219;-90
2021/09/09 06:01:06;;;;;;;;;26.50;23.00;;;;;28.27;53.13;100230.25;6190950;22;45111;-91
2021/09/09 06:03:34;;;;;;;;;29.50;27.75;;;;;28.21;53.06;100225.34;6190080;22;46941;-88
2021/09/09 06:06:04;;;;;;;;;28.25;24.00;;;;;28.26;52.96;100243.81;6190350;22;45282;-85
2021/09/09 06:08:34;;;;;;;;;28.25;26.00;;;;;28.12;52.83;100228.69;6191566;22;45297;-89
2021/09/09 06:10:59;;;;;;;;;24.50;23.50;;;;;28.19;53.22;100248.75;6216688;22;45380;-89
2021/09/09 06:13:25;;;;;;;;;25.75;24.00;;;;;28.16;53.46;100246.28;6215419;22;45926;-88
2021/09/09 06:15:53;;;;;;;;;31.75;30.00;;;;;28.07;52.43;100236.22;6189647;22;45414;-89
2021/09/09 06:18:19;;;;;;;;;27.50;25.50;;;;;28.09;52.77;100243.19;6166364;22;45297;-89
2021/09/09 06:20:45;;;;;;;;;33.50;29.50;;;;;28.10;53.35;100252.94;6190045;22;45214;-89
2021/09/09 06:23:11;;;;;;;;;31.00;28.00;;;;;28.10;53.44;100252.09;6193113;22;45213;-89
2021/09/09 06:25:36;;;;;;;;;26.50;25.25;;;;;28.09;53.27;100261.09;6192044;22;45278;-89
2021/09/09 06:28:02;;;;;;;;;26.25;24.25;;;;;28.01;53.44;100248.22;6190968;22;45191;-89
2021/09/09 06:30:27;;;;;;;;;26.00;23.25;;;;;28.00;53.14;100254.56;6191430;22;45252;-89
2021/09/09 06:32:53;;;;;;;;;27.25;24.50;;;;;27.93;53.22;100247.06;6191447;22;46394;-89
2021/09/09 06:35:18;;;;;;;;;32.25;26.75;;;;;27.90;53.62;100244.59;6190960;22;45154;-90
2021/09/09 06:37:43;;;;;;;;;25.25;25.25;;;;;27.95;53.44;100259.38;6165793;22;51630;-89
2021/09/09 06:40:09;;;;;;;;;25.50;25.50;;;;;27.99;53.17;100260.91;6190970;22;45312;-89
2021/09/09 06:42:34;;;;;;;;;28.00;28.00;;;;;27.95;53.34;100253.16;6190781;22;47527;-90
2021/09/09 06:45:00;;;;;;;;;27.75;25.00;;;;;27.95;53.13;100266.59;6165430;22;45395;-89
2021/09/09 06:47:26;;;;;;;;;26.00;24.00;;;;;28.01;53.08;100280.44;6171101;22;45388;-88
2021/09/09 06:49:51;;;;;;;;;30.75;26.75;;;;;27.97;53.59;100278.06;6159427;22;45582;-88
2021/09/09 06:52:17;;;;;;;;;35.75;31.00;;;;;27.91;53.78;100276.69;6181687;22;47531;-87
2021/09/09 06:54:42;;;;;;;;;28.25;27.50;;;;;27.79;53.50;100264.13;6190130;22;45329;-87
2021/09/09 06:57:08;;;;;;;;;28.50;25.00;;;;;27.78;53.44;100271.31;6190902;22;45386;-89
2021/09/09 06:59:33;;;;;;;;;25.50;21.25;;;;;27.86;53.39;100277.00;6216423;22;45424;-88
2021/09/09 07:01:58;;;;;;;;;27.25;23.50;;;;;27.89;53.63;100281.31;6191193;22;45387;-87
2021/09/09 07:04:24;;;;;;;;;28.00;26.50;;;;;27.94;53.53;100279.13;6191466;22;45198;-90
2021/09/09 07:06:49;;;;;;;;;25.00;23.75;;;;;27.96;53.08;100271.84;6191000;22;45305;-88
2021/09/09 07:09:15;;;;;;;;;25.00;24.50;;;;;28.01;52.93;100275.06;6215816;22;45481;-87
2021/09/09 07:11:40;;;;;;;;;27.50;25.00;;;;;28.01;52.85;100269.69;6208409;22;46847;-87
2021/09/09 07:14:06;;;;;;;;;31.75;27.75;;;;;28.12;52.68;100285.03;6189325;22;45202;-87
2021/09/09 07:16:31;;;;;;;;;26.25;23.00;;;;;28.15;53.33;100283.00;6190771;22;45235;-87
2021/09/09 07:18:57;;;;;;;;;31.25;25.50;;;;;28.15;52.33;100272.28;6217861;22;45114;-86
2021/09/09 07:21:22;;;;;;;;;25.75;22.75;;;;;28.21;52.96;100275.47;6217134;22;45510;-86
2021/09/09 07:23:48;;;;;;;;;27.00;23.25;;;;;28.20;52.48;100273.75;6216642;22;45254;-86
2021/09/09 07:26:13;;;;;;;;;25.75;23.50;;;;;28.24;52.51;100281.47;6216351;22;45177;-85
2021/09/09 07:28:38;;;;;;;;;23.00;21.75;;;;;28.25;52.70;100268.94;6216208;22;45234;-86
2021/09/09 07:31:04;;;;;;;;;22.00;20.25;;;;;28.31;51.87;100282.78;6190858;22;46120;-86
2021/09/09 07:33:30;;;;;;;;;22.25;22.00;;;;;28.31;52.62;100276.53;6190682;22;45384;-86
2021/09/09 07:35:55;;;;;;;;;22.50;22.50;;;;;28.32;51.87;100280.94;6218103;22;45287;-86
2021/09/09 07:38:21;;;;;;;;;22.50;22.25;;;;;28.38;51.81;100292.09;6164598;22;45616;-86
2021/09/09 07:40:46;;;;;;;;;24.00;22.75;;;;;28.38;52.11;100285.88;6215481;22;56738;-86
2021/09/09 07:43:12;;;;;;;;;22.25;21.00;;;;;28.41;51.72;100286.53;6217330;22;45224;-86
2021/09/09 07:45:37;;;;;;;;;29.25;25.75;;;;;28.43;51.60;100292.63;6190663;22;45369;-86
2021/09/09 07:48:03;;;;;;;;;22.75;20.75;;;;;28.42;51.79;100284.69;6190722;22;51625;-87
2021/09/09 07:50:28;;;;;;;;;27.00;24.50;;;;;28.36;51.97;100283.31;6191074;22;46164;-86
2021/09/09 07:52:53;;;;;;;;;27.25;24.50;;;;;28.36;52.19;100275.25;6165555;22;45325;-87
2021/09/09 07:55:19;;;;;;;;;28.25;24.75;;;;;28.35;52.00;100283.44;6218144;22;45142;-86
2021/09/09 07:57:45;;;;;;;;;27.75;22.00;;;;;28.37;51.68;100289.53;6190361;22;45623;-85
2021/09/09 08:00:11;;;;;;;;;25.25;24.50;;;;;28.35;51.83;100281.59;6217541;22;45170;-85
2021/09/09 08:02:36;;;;;;;;;27.00;26.25;;;;;28.37;51.89;100285.03;6190596;22;45207;-86
2021/09/09 08:05:02;;;;;;;;;26.50;25.75;;;;;28.33;51.09;100272.81;6191053;22;45243;-87
2021/09/09 08:07:28;;;;;;;;;24.25;22.25;;;;;28.38;51.51;100283.19;6165424;22;45681;-86
2021/09/09 08:09:53;;;;;;;;;27.50;23.25;;;;;28.40;51.67;100276.72;6220189;22;46861;-87
2021/09/09 08:12:18;;;;;;;;;26.50;23.00;;;;;28.41;51.66;100288.34;6194118;22;45206;-86
2021/09/09 08:14:44;;;;;;;;;24.75;22.00;;;;;28.37;52.01;100284.16;6220082;22;45926;-85
2021/09/09 08:17:09;;;;;;;;;24.25;24.25;;;;;28.42;51.65;100292.75;6222435;22;45359;-86
2021/09/09 08:19:35;;;;;;;;;26.00;23.50;;;;;28.43;51.74;100299.84;6168559;22;47204;-85
2021/09/09 08:22:00;;;;;;;;;23.00;22.00;;;;;28.40;51.67;100291.97;6216138;22;54495;-86
2021/09/09 08:24:26;;;;;;;;;26.00;24.00;;;;;28.37;51.17;100290.38;6215952;22;46071;-86
2021/09/09 08:26:51;;;;;;;;;27.50;24.25;;;;;28.34;51.51;100290.63;6165395;22;45730;-87
2021/09/09 08:29:17;;;;;;;;;24.25;22.75;;;;;28.25;51.62;100274.28;6189771;22;46965;-86
2021/09/09 08:31:43;;;;;;;;;26.00;23.25;;;;;28.32;51.46;100297.03;6190977;22;45385;-86
2021/09/09 08:34:08;;;;;;;;;25.50;25.00;;;;;28.32;51.81;100292.56;6216237;22;45334;-85
2021/09/09 08:36:34;;;;;;;;;24.25;23.50;;;;;28.32;51.79;100300.63;6189169;22;45511;-86
2021/09/09 08:38:59;;;;;;;;;27.50;22.50;;;;;28.31;51.14;100298.88;6188822;22;47114;-85
2021/09/09 08:41:25;;;;;;;;;26.75;22.50;;;;;28.23;51.96;100295.84;6190119;22;45295;-86
2021/09/09 08:43:50;;;;;;;;;23.25;22.75;;;;;28.27;51.33;100299.19;6207094;22;45381;-89
2021/09/09 08:46:16;;;;;;;;;27.75;22.75;;;;;28.25;51.32;100301.13;6203603;22;45272;-86
2021/09/09 08:48:46;;;;;;;;;25.00;22.25;;;;;28.23;51.76;100311.09;6177710;22;45472;-83
2021/09/09 08:51:16;;;;;;;;;22.25;21.25;;;;;28.08;51.59;100300.50;6188677;22;45777;-87
2021/09/09 08:53:42;;;;;;;;;26.50;22.25;;;;;28.03;51.86;100301.78;6170197;22;45319;-87
2021/09/09 08:56:07;;;;;;;;;24.50;22.75;;;;;27.97;52.08;100313.78;6161283;22;45715;-88
2021/09/09 08:58:36;;;;;;;;;22.75;22.75;;;;;27.80;52.02;100304.25;6189275;22;47344;-87
2021/09/09 09:01:14;;;;;;;;;25.50;23.00;;;;;27.75;52.39;100316.25;6192057;22;45323;-86
2021/09/09 09:03:58;;;;;;;;;25.25;24.50;;;;;27.68;52.60;100310.44;6183493;22;45245;-87
2021/09/09 09:06:24;;;;;;;;;26.50;23.50;;;;;27.76;52.50;100316.16;6188496;22;45400;-87
2021/09/09 09:08:56;;;;;;;;;20.50;18.00;;;;;27.77;52.94;100319.69;6241187;22;47208;-87
2021/09/09 09:11:32;;;;;;;;;20.75;19.25;;;;;27.75;52.85;100317.13;6218578;22;45264;-88
2021/09/09 09:13:57;;;;;;;;;22.75;20.50;;;;;27.82;52.79;100323.78;6192524;22;45485;-87
2021/09/09 09:16:23;;;;;;;;;21.75;19.25;;;;;27.84;52.29;100318.31;6165570;22;45626;-86
2021/09/09 09:18:49;;;;;;;;;24.00;22.75;;;;;27.83;52.47;100321.94;6189589;22;46954;-87
2021/09/09 09:21:14;;;;;;;;;19.50;17.75;;;;;27.71;52.65;100302.19;6164452;22;45268;-87
2021/09/09 09:23:51;;;;;;;;;23.00;20.25;;;;;27.84;52.38;100318.31;6190127;22;45210;-87
2021/09/09 09:26:17;;;;;;;;;23.50;22.25;;;;;27.86;52.88;100313.69;6215730;22;45527;-87
2021/09/09 09:28:47;;;;;;;;;21.25;20.75;;;;;27.85;52.79;100320.88;6201883;22;45764;-87
2021/09/09 09:31:14;;;;;;;;;20.25;19.25;;;;;27.81;52.92;100315.84;6214102;22;45430;-88
2021/09/09 09:33:45;;;;;;;;;23.50;23.00;;;;;27.80;53.00;100304.25;6190276;22;45202;-87
2021/09/09 09:36:18;;;;;;;;;20.75;18.75;;;;;27.77;53.05;100309.81;6190937;22;45269;-86
2021/09/09 09:38:43;;;;;;;;;19.75;17.75;;;;;27.80;53.23;100312.31;6191910;22;45269;-86
2021/09/09 09:41:09;;;;;;;;;22.50;19.75;;;;;27.89;52.66;100321.53;6190815;22;45198;-86
2021/09/09 09:43:34;;;;;;;;;22.50;21.00;;;;;27.89;52.77;100324.22;6184390;22;45823;-86
2021/09/09 09:46:01;;;;;;;;;21.25;20.50;;;;;27.87;52.81;100313.56;6189791;22;45446;-87
2021/09/09 09:48:33;;;;;;;;;19.25;19.25;;;;;27.86;53.26;100314.53;6190570;22;47924;-87
2021/09/09 09:50:59;;;;;;;;;18.50;17.75;;;;;27.86;53.12;100316.38;6191297;22;45206;-87
2021/09/09 09:53:25;;;;;;;;;23.25;20.25;;;;;27.82;52.87;100296.09;6190136;22;45790;-87
2021/09/09 09:55:50;;;;;;;;;21.00;19.75;;;;;27.87;52.67;100310.88;6163896;22;45473;-87
2021/09/09 09:58:16;;;;;;;;;20.25;19.25;;;;;27.96;52.82;100313.91;6165950;22;58932;-87
2021/09/09 10:00:42;;;;;;;;;25.50;20.75;;;;;27.96;53.03;100316.56;6200752;22;45419;-86
2021/09/09 10:03:07;;;;;;;;;23.00;22.50;;;;;27.95;52.55;100315.72;6175093;22;45270;-87
2021/09/09 10:05:36;;;;;;;;;19.25;19.25;;;;;28.03;53.18;100325.91;6167520;22;45633;-87
2021/09/09 10:08:02;;;;;;;;;24.00;20.25;;;;;28.00;52.74;100315.41;6188872;22;46986;-86
2021/09/09 10:10:27;;;;;;;;;25.50;24.25;;;;;28.06;53.21;100320.34;6189356;22;45127;-88
2021/09/09 10:12:52;;;;;;;;;24.25;21.25;;;;;28.07;53.06;100319.38;6187825;22;55795;-87
2021/09/09 10:15:21;;;;;;;;;21.00;20.00;;;;;28.07;52.61;100316.72;6180485;22;61266;-85
2021/09/09 10:17:47;;;;;;;;;23.25;23.25;;;;;28.08;52.44;100316.59;6186380;22;59819;-86
2021/09/09 10:20:29;;;;;;;;;22.50;22.50;;;;;28.12;52.59;100326.13;6188347;22;45615;-86
2021/09/09 10:23:03;;;;;;;;;27.00;18.50;;;;;28.13;52.99;100317.09;6240977;22;45364;-84
2021/09/09 10:25:53;;;;;;;;;22.50;21.00;;;;;28.14;52.91;100317.97;6239782;22;45363;-88
2021/09/09 10:28:54;;;;;;;;;20.25;18.75;;;;;28.13;52.32;100314.44;6214948;22;45531;-88
2021/09/09 10:31:24;;;;;;;;;24.75;21.25;;;;;28.09;52.82;100309.41;6239970;22;45958;-86
2021/09/09 10:33:53;;;;;;;;;24.25;21.75;;;;;28.10;52.73;100311.97;6166199;22;45223;-87
2021/09/09 10:36:44;;;;;;;;;18.00;17.00;;;;;28.14;52.21;100312.59;6189464;22;45357;-87
2021/09/09 10:39:20;;;;;;;;;18.50;18.00;;;;;28.15;52.80;100314.34;6214321;22;46763;-86
2021/09/09 10:41:45;;;;;;;;;18.00;18.00;;;;;28.14;52.27;100318.81;6214930;22;45260;-85
2021/09/09 10:44:11;;;;;;;;;18.50;16.50;;;;;28.14;52.69;100313.47;6189160;22;45262;-87
2021/09/09 10:46:40;;;;;;;;;19.75;19.50;;;;;28.15;52.60;100314.34;6217252;22;45391;-85
2021/09/09 10:49:08;;;;;;;;;18.00;17.50;;;;;28.15;52.71;100314.34;6190781;22;45572;-86
2021/09/09 10:51:34;;;;;;;;;22.25;19.25;;;;;28.17;52.01;100318.63;6190024;22;45361;-86
2021/09/09 10:53:59;;;;;;;;;19.00;17.75;;;;;28.17;52.21;100307.03;6189618;22;45263;-86
2021/09/09 10:56:35;;;;;;;;;20.00;18.50;;;;;28.17;52.18;100312.41;6215393;22;45423;-86
2021/09/09 10:59:11;;;;;;;;;17.50;17.00;;;;;28.24;51.45;100312.84;6190522;22;45328;-85
2021/09/09 11:01:38;;;;;;;;;16.25;15.75;;;;;28.26;51.44;100310.88;6191357;22;45190;-88
2021/09/09 11:04:03;;;;;;;;;13.00;10.75;;;;;28.25;49.82;100303.81;6214126;22;45169;-80
2021/09/09 11:06:29;;;;;;;;;11.25;10.25;;;;;28.28;50.00;100304.44;6212927;22;45127;-79